Flight Track Log - Related Links

Times and Time Zones

All times are in EDT time to prevent confusion due to time zone crossing. See the FIN666 flight status page for this flight to view local times or setup timezone preferences in your user account.


Time Position Orientation Groundspeed Altitude Reporting Facility
EDT Latitude Longitude Course Direction KTS MPH feet Rate Location/Type
Fri 07:27:00 AM 55.8592 13.1550 49° Northeast  Level Estimated
Fri 07:28:00 AM 55.9392 13.3227 50° Northeast  Level Estimated
Fri 07:29:00 AM 56.0189 13.4911 50° Northeast  Level Estimated
Fri 07:30:00 AM 56.0985 13.6603 50° Northeast  Level Estimated
Fri 07:31:00 AM 56.1743 13.8226 50° Northeast  Level Estimated
Fri 07:32:00 AM 56.2498 13.9855 50° Northeast  Level Estimated
Fri 07:33:00 AM 56.3252 14.1491 50° Northeast  Level Estimated
Fri 07:34:00 AM 56.4003 14.3133 50° Northeast  Level Estimated
Fri 07:35:00 AM 56.4753 14.4782 51° Northeast  Level Estimated
Fri 07:36:00 AM 56.5500 14.6438 51° Northeast  Level Estimated
Fri 07:37:00 AM 56.6245 14.8099 51° Northeast  Level Estimated
Fri 07:38:00 AM 56.6987 14.9768 51° Northeast  Level Estimated
Fri 07:39:00 AM 56.7728 15.1443 51° Northeast  Level Estimated
Fri 07:40:00 AM 56.8466 15.3125 51° Northeast  Level Estimated
Fri 07:41:00 AM 56.9202 15.4813 51° Northeast  Level Estimated
Fri 07:42:00 AM 56.9936 15.6508 51° Northeast  Level Estimated
Fri 07:43:00 AM 57.0667 15.8210 52° Northeast  Level Estimated
Fri 07:44:00 AM 57.1396 15.9918 52° Northeast  Level Estimated
Fri 07:45:00 AM 57.2123 16.1633 52° Northeast  Level Estimated
Fri 07:46:00 AM 57.2847 16.3355 52° Northeast  Level Estimated
Fri 07:47:00 AM 57.3569 16.5083 52° Northeast  Level Estimated
Fri 07:48:00 AM 57.4289 16.6819 52° Northeast  Level Estimated
Fri 07:49:00 AM 57.5006 16.8561 52° Northeast  Level Estimated
Fri 07:50:00 AM 57.5721 17.0310 53° Northeast  Level Estimated
Fri 07:51:00 AM 57.6433 17.2066 53° Northeast  Level Estimated
Fri 07:52:00 AM 57.7143 17.3829 53° Northeast  Level Estimated
Fri 07:53:00 AM 57.7851 17.5599 53° Northeast  Level Estimated
Fri 07:54:00 AM 57.8556 17.7376 53° Northeast  Level Estimated
Fri 07:55:00 AM 57.9258 17.9159 53° Northeast  Level Estimated
Fri 07:56:00 AM 57.9958 18.0950 54° Northeast  Level Estimated
Fri 07:57:00 AM 58.0656 18.2747 54° Northeast  Level Estimated
Fri 07:58:00 AM 58.1351 18.4552 54° Northeast  Level Estimated
Fri 07:59:00 AM 58.2043 18.6364 54° Northeast  Level Estimated
Fri 08:00:00 AM 58.2733 18.8183 54° Northeast  Level Estimated
Fri 08:01:00 AM 58.3420 19.0009 54° Northeast  Level Estimated
Fri 08:02:00 AM 58.4105 19.1842 54° Northeast  Level Estimated
Fri 08:03:00 AM 58.4787 19.3682 55° Northeast  Level Estimated
Fri 08:04:00 AM 58.5466 19.5529 55° Northeast  Level Estimated
Fri 08:05:00 AM 58.6143 19.7383 55° Northeast  Level Estimated
Fri 08:06:00 AM 58.6817 19.9245 55° Northeast  Level Estimated
Fri 08:07:00 AM 58.7488 20.1114 55° Northeast  Level Estimated
Fri 08:08:00 AM 58.8157 20.2990 55° Northeast  Level Estimated
Fri 08:09:00 AM 58.8823 20.4873 56° Northeast  Level Estimated
Fri 08:10:00 AM 58.9486 20.6763 56° Northeast  Level Estimated
Fri 08:11:00 AM 59.0146 20.8661 56° Northeast  Level Estimated
Fri 08:12:00 AM 59.0803 21.0566 56° Northeast  Level Estimated
Fri 08:13:00 AM 59.1440 21.2424 56° Northeast  Level Estimated
Fri 08:14:00 AM 59.2073 21.4288 56° Northeast  Level Estimated
Fri 08:15:00 AM 59.2704 21.6160 57° Northeast  Level Estimated
Fri 08:16:00 AM 59.3332 21.8038 57° Northeast  Level Estimated
Fri 08:17:00 AM 59.3957 21.9923 57° Northeast  Level Estimated
Fri 08:18:00 AM 59.4580 22.1815 57° Northeast  Level Estimated
Fri 08:19:00 AM 59.5200 22.3715 57° Northeast  Level Estimated
Fri 08:20:00 AM 59.5817 22.5621 57° Northeast  Level Estimated
Fri 08:21:00 AM 59.6431 22.7534 58° Northeast  Level Estimated
Fri 08:22:00 AM 59.7043 22.9454 58° Northeast  Level Estimated
Fri 08:23:00 AM 59.7651 23.1381 58° Northeast  Level Estimated
Fri 08:24:00 AM 59.8257 23.3316 58° Northeast  Level Estimated
Fri 08:25:00 AM 59.8860 23.5257 58° Northeast  Level Estimated
Fri 08:26:00 AM 59.9460 23.7205 58° Northeast  Level Estimated
Fri 08:27:00 AM 60.0058 23.9160 59° Northeast  Level Estimated
Fri 08:28:00 AM 60.0652 24.1123 59° Northeast  Level Estimated
Fri 08:29:00 AM 60.1244 24.3092 59° Northeast  Level Estimated
Fri 08:30:00 AM 60.1832 24.5069 59° Northeast  Level Estimated
Fri 08:31:00 AM 60.2418 24.7052 59° Northeast  Level Estimated
Fri 08:32:00 AM 60.3000 24.9043 59° Northeast  Level Estimated
Fri 08:33:00 AM 60.3172 24.9633 60° Northeast  Level Estimated
Fri 08:34:00 AM 60.3172 24.9633 37° Northeast  Level Estimated
Fri 08:35:00 AM 60.3172 24.9633 37° Northeast  Level Estimated
Fri 08:36:00 AM 60.3172 24.9633 37° Northeast  Level Estimated
Fri 08:37:00 AM 60.3172 24.9633 37° Northeast  Level Estimated
Fri 08:38:00 AM 60.3172 24.9633 37° Northeast  Level Estimated
Fri 08:39:00 AM 60.3172 24.9633 37° Northeast  Level Estimated
Fri 08:40:00 AM 60.3172 24.9633 37° Northeast  Level Estimated
Fri 08:41:00 AM 60.3172 24.9633 37° Northeast  Level Estimated
Fri 08:42:00 AM 60.3172 24.9633 37° Northeast  Level Estimated
Fri 08:43:00 AM 60.3172 24.9633 37° Northeast  Level Estimated
Fri 08:44:00 AM 60.3172 24.9633 37° Northeast  Level Estimated

Login

Don't have an account? Register now (free) for customized features, flight alerts, and more!